createdAt,value
2023-07-29T00:00:57.226Z,97710.97
2023-07-29T00:02:00.570Z,97718.50
2023-07-29T00:03:04.246Z,97712.38
2023-07-29T00:04:07.447Z,97716.03
2023-07-29T00:05:10.305Z,97711.22
2023-07-29T00:06:13.308Z,97705.03
2023-07-29T00:07:16.177Z,97709.81
2023-07-29T00:08:18.917Z,97705.53
2023-07-29T00:09:21.773Z,97711.09
2023-07-29T00:10:24.496Z,97711.78
2023-07-29T00:11:27.225Z,97711.09
2023-07-29T00:12:30.299Z,97711.78
2023-07-29T00:13:33.174Z,97709.63
2023-07-29T00:14:35.957Z,97705.38
2023-07-29T00:15:38.721Z,97707.37
2023-07-29T00:16:41.579Z,97707.34
2023-07-29T00:17:44.473Z,97707.34
2023-07-29T00:18:47.358Z,97703.84
2023-07-29T00:19:50.270Z,97709.41
2023-07-29T00:20:53.106Z,97710.81
2023-07-29T00:21:55.862Z,97704.56
2023-07-29T00:22:59.750Z,97708.69
2023-07-29T00:24:02.592Z,97705.13
2023-07-29T00:25:06.167Z,97701.06
2023-07-29T00:26:09.245Z,97703.84
2023-07-29T00:27:12.097Z,97709.47
2023-07-29T00:28:14.905Z,97705.22
2023-07-29T00:29:17.723Z,97703.09
2023-07-29T00:30:20.490Z,97708.50
2023-07-29T00:31:23.568Z,97702.94
2023-07-29T00:32:28.823Z,97706.37
2023-07-29T00:33:31.591Z,97694.41
2023-07-29T00:34:34.404Z,97697.81
2023-07-29T00:35:37.313Z,97700.69
2023-07-29T00:36:40.176Z,97695.78
2023-07-29T00:37:43.102Z,97702.62
2023-07-29T00:38:45.869Z,97701.88
2023-07-29T00:39:48.675Z,97684.37
2023-07-29T00:40:51.960Z,97701.03
2023-07-29T00:41:54.791Z,97699.59
2023-07-29T00:42:57.449Z,97698.81
2023-07-29T00:44:00.181Z,97698.81
2023-07-29T00:45:02.913Z,97700.03
2023-07-29T00:46:06.121Z,97696.41
2023-07-29T00:47:10.096Z,97691.44
2023-07-29T00:48:13.640Z,97697.72
2023-07-29T00:49:16.580Z,97688.59
2023-07-29T00:50:19.644Z,97698.28
2023-07-29T00:51:22.556Z,97691.31
2023-07-29T00:52:25.414Z,97693.28
2023-07-29T00:53:28.201Z,97693.91
2023-07-29T00:54:31.115Z,97691.81
2023-07-29T00:55:34.005Z,97691.13
2023-07-29T00:56:37.070Z,97695.31
2023-07-29T00:57:41.408Z,97686.25
2023-07-29T00:58:44.197Z,97687.03
2023-07-29T00:59:47.351Z,97685.59
2023-07-29T01:00:50.980Z,97682.84
2023-07-29T01:01:53.948Z,97697.38
2023-07-29T01:02:56.939Z,97690.31
2023-07-29T01:03:59.900Z,97688.12
2023-07-29T01:05:03.586Z,97683.16
2023-07-29T01:06:21.330Z,97694.22
2023-07-29T01:08:09.263Z,97698.25
2023-07-29T01:09:59.709Z,97691.22
2023-07-29T01:11:11.497Z,97694.06
2023-07-29T01:12:44.210Z,97683.78
2023-07-29T01:14:17.092Z,97690.00
2023-07-29T01:15:32.277Z,97685.66
2023-07-29T01:16:48.581Z,97686.25
2023-07-29T01:17:56.823Z,97686.19
2023-07-29T01:19:06.583Z,97682.75
2023-07-29T01:20:11.398Z,97684.81
2023-07-29T01:21:15.611Z,97685.06
2023-07-29T01:22:20.402Z,97683.09
2023-07-29T01:23:27.790Z,97694.00
2023-07-29T01:24:30.566Z,97685.53
2023-07-29T01:25:33.441Z,97682.25
2023-07-29T01:26:36.330Z,97684.66
2023-07-29T01:27:39.543Z,97686.50
2023-07-29T01:28:42.390Z,97683.78
2023-07-29T01:29:45.320Z,97683.66
2023-07-29T01:30:53.044Z,97684.31
2023-07-29T01:32:02.788Z,97678.75
2023-07-29T01:33:19.772Z,97686.94
2023-07-29T01:34:36.552Z,97675.78
2023-07-29T01:35:48.114Z,97687.47
2023-07-29T01:36:52.399Z,97681.25
2023-07-29T01:38:08.628Z,97698.63
2023-07-29T01:39:13.664Z,97682.53
2023-07-29T01:40:17.604Z,97690.22
2023-07-29T01:41:21.758Z,97693.81
2023-07-29T01:42:27.252Z,97696.34
2023-07-29T01:43:32.123Z,97697.84
2023-07-29T01:44:35.922Z,97701.88
2023-07-29T01:45:39.827Z,97699.06
2023-07-29T01:46:42.674Z,97699.16
2023-07-29T01:47:45.474Z,97690.97
2023-07-29T01:48:48.320Z,97690.91
2023-07-29T01:49:51.150Z,97697.03
2023-07-29T01:50:53.892Z,97694.91
2023-07-29T01:51:56.717Z,97694.91
2023-07-29T01:53:00.231Z,97701.88
2023-07-29T01:54:03.163Z,97699.13
2023-07-29T01:55:06.385Z,97695.62
2023-07-29T01:56:09.385Z,97696.66
2023-07-29T01:57:12.521Z,97688.19
2023-07-29T01:58:15.630Z,97694.41
2023-07-29T01:59:18.772Z,97691.63
2023-07-29T02:00:23.021Z,97692.34
2023-07-29T02:01:25.877Z,97695.12
2023-07-29T02:02:28.749Z,97695.12
2023-07-29T02:03:31.790Z,97693.91
2023-07-29T02:04:34.977Z,97684.06
2023-07-29T02:05:37.952Z,97688.19
2023-07-29T02:06:40.753Z,97691.87
2023-07-29T02:07:43.656Z,97691.13
2023-07-29T02:08:46.432Z,97694.47
2023-07-29T02:09:49.375Z,97688.06
2023-07-29T02:10:52.090Z,97692.06
2023-07-29T02:11:54.996Z,97690.63
2023-07-29T02:12:57.800Z,97694.78
2023-07-29T02:14:00.646Z,97693.50
2023-07-29T02:15:04.369Z,97692.19
2023-07-29T02:16:07.394Z,97688.06
2023-07-29T02:17:10.461Z,97689.41
2023-07-29T02:18:13.300Z,97686.63
2023-07-29T02:19:16.330Z,97690.00
2023-07-29T02:20:19.313Z,97687.09
2023-07-29T02:21:22.206Z,97692.66
2023-07-29T02:22:24.986Z,97695.44
2023-07-29T02:23:27.810Z,97689.06
2023-07-29T02:24:30.647Z,97692.44
2023-07-29T02:25:36.992Z,97698.72
2023-07-29T02:26:40.079Z,97698.63
2023-07-29T02:27:42.866Z,97697.34
2023-07-29T02:28:45.871Z,97697.34
2023-07-29T02:29:49.314Z,97696.59
2023-07-29T02:31:21.344Z,97697.22
2023-07-29T02:32:24.226Z,97683.25
2023-07-29T02:33:27.092Z,97697.22
2023-07-29T02:34:30.276Z,97691.59
2023-07-29T02:35:33.026Z,97683.81
2023-07-29T02:36:36.105Z,97684.69
2023-07-29T02:37:39.231Z,97690.22
2023-07-29T02:38:42.786Z,97694.31
2023-07-29T02:39:46.108Z,97691.28
2023-07-29T02:40:49.053Z,97691.94
2023-07-29T02:41:52.228Z,97693.94
2023-07-29T02:42:55.211Z,97699.34
2023-07-29T02:43:58.029Z,97701.41
2023-07-29T02:45:00.892Z,97696.56
2023-07-29T02:46:04.252Z,97704.84
2023-07-29T02:47:07.095Z,97702.69
2023-07-29T02:48:09.871Z,97705.41
2023-07-29T02:49:12.695Z,97695.00
2023-07-29T02:50:15.759Z,97704.75
2023-07-29T02:51:18.529Z,97704.03
2023-07-29T02:52:21.442Z,97695.56
2023-07-29T02:53:24.560Z,97695.50
2023-07-29T02:54:27.405Z,97700.28
2023-07-29T02:55:30.126Z,97696.78
2023-07-29T02:56:32.909Z,97695.56
2023-07-29T02:57:35.654Z,97695.50
2023-07-29T02:58:38.860Z,97693.28
2023-07-29T02:59:41.574Z,97700.84
2023-07-29T03:00:44.842Z,97700.03
2023-07-29T03:01:48.138Z,97703.56
2023-07-29T03:02:51.955Z,97704.25
2023-07-29T03:03:54.993Z,97701.41
2023-07-29T03:04:58.056Z,97697.22
2023-07-29T03:06:07.901Z,97699.44
2023-07-29T03:07:10.979Z,97704.19
2023-07-29T03:08:14.410Z,97700.19
2023-07-29T03:09:17.138Z,97704.31
2023-07-29T03:10:19.916Z,97703.06
2023-07-29T03:11:22.627Z,97701.69
2023-07-29T03:12:25.415Z,97711.44
2023-07-29T03:13:28.114Z,97706.41
2023-07-29T03:14:30.684Z,97701.50
2023-07-29T03:15:35.311Z,97709.81
2023-07-29T03:16:38.192Z,97695.94
2023-07-29T03:17:41.287Z,97707.03
2023-07-29T03:18:45.235Z,97707.87
2023-07-29T03:19:47.923Z,97702.25
2023-07-29T03:20:50.832Z,97703.62
2023-07-29T03:21:53.493Z,97701.50
2023-07-29T03:22:56.254Z,97702.75
2023-07-29T03:23:59.064Z,97708.25
2023-07-29T03:25:01.752Z,97695.72
2023-07-29T03:26:11.479Z,97699.91
2023-07-29T03:27:16.371Z,97699.91
2023-07-29T03:28:19.176Z,97708.88
2023-07-29T03:29:22.013Z,97697.84
2023-07-29T03:30:24.883Z,97702.00
2023-07-29T03:31:27.600Z,97697.22
2023-07-29T03:32:30.397Z,97703.56
2023-07-29T03:33:33.383Z,97714.66
2023-07-29T03:34:36.199Z,97709.66
2023-07-29T03:35:38.916Z,97706.19
2023-07-29T03:36:42.290Z,97697.75
2023-07-29T03:37:45.140Z,97699.91
2023-07-29T03:38:47.785Z,97704.81
2023-07-29T03:39:50.614Z,97700.53
2023-07-29T03:40:54.709Z,97708.25
2023-07-29T03:41:57.491Z,97708.88
2023-07-29T03:43:00.167Z,97711.59
2023-07-29T03:44:03.076Z,97712.22
2023-07-29T03:45:06.494Z,97701.84
2023-07-29T03:46:12.070Z,97712.88
2023-07-29T03:47:15.528Z,97708.75
2023-07-29T03:48:18.354Z,97712.13
2023-07-29T03:49:21.129Z,97712.13
2023-07-29T03:50:24.815Z,97710.81
2023-07-29T03:51:27.582Z,97708.03
2023-07-29T03:52:30.219Z,97707.31
2023-07-29T03:53:32.939Z,97709.53
2023-07-29T03:54:35.616Z,97710.31
2023-07-29T03:55:38.504Z,97715.94
2023-07-29T03:56:41.116Z,97706.41
2023-07-29T03:57:43.895Z,97706.47
2023-07-29T03:58:49.468Z,97709.88
2023-07-29T03:59:52.144Z,97716.78
2023-07-29T04:00:54.972Z,97707.66
2023-07-29T04:01:57.769Z,97707.66
2023-07-29T04:03:00.736Z,97709.81
2023-07-29T04:04:03.716Z,97721.63
2023-07-29T04:05:09.583Z,97708.47
2023-07-29T04:06:12.616Z,97709.16
2023-07-29T04:07:15.805Z,97709.94
2023-07-29T04:08:20.820Z,97714.09
2023-07-29T04:09:24.454Z,97715.59
2023-07-29T04:10:27.306Z,97709.31
2023-07-29T04:11:30.093Z,97714.28
2023-07-29T04:12:32.868Z,97707.37
2023-07-29T04:13:35.595Z,97710.94
2023-07-29T04:14:38.452Z,97715.09
2023-07-29T04:15:41.286Z,97717.94
2023-07-29T04:16:44.211Z,97714.44
2023-07-29T04:17:47.283Z,97717.38
2023-07-29T04:18:50.090Z,97713.94
2023-07-29T04:19:52.841Z,97716.16
2023-07-29T04:20:55.543Z,97716.28
2023-07-29T04:21:58.264Z,97717.00
2023-07-29T04:23:01.005Z,97716.38
2023-07-29T04:24:04.018Z,97721.34
2023-07-29T04:25:07.414Z,97725.00
2023-07-29T04:26:10.105Z,97718.31
2023-07-29T04:27:12.805Z,97722.75
2023-07-29T04:28:15.650Z,97720.06
2023-07-29T04:29:18.593Z,97719.41
2023-07-29T04:30:21.426Z,97719.47
2023-07-29T04:31:24.187Z,97720.19
2023-07-29T04:32:27.332Z,97711.22
2023-07-29T04:33:36.007Z,97716.91
2023-07-29T04:34:40.613Z,97710.81
2023-07-29T04:35:43.381Z,97715.09
2023-07-29T04:36:47.086Z,97711.66
2023-07-29T04:37:50.181Z,97707.53
2023-07-29T04:38:53.016Z,97713.16
2023-07-29T04:39:55.757Z,97709.03
2023-07-29T04:40:58.658Z,97714.59
2023-07-29T04:42:02.230Z,97716.66
2023-07-29T04:43:05.180Z,97714.50
2023-07-29T04:44:08.203Z,97719.31
2023-07-29T04:45:11.255Z,97718.66
2023-07-29T04:46:14.313Z,97706.25
2023-07-29T04:47:18.141Z,97709.88
2023-07-29T04:48:21.095Z,97718.84
2023-07-29T04:49:23.965Z,97709.03
2023-07-29T04:50:26.751Z,97708.94
2023-07-29T04:51:30.162Z,97704.84
2023-07-29T04:52:33.074Z,97703.47
2023-07-29T04:53:37.941Z,97707.00
2023-07-29T04:54:40.913Z,97709.22
2023-07-29T04:55:46.416Z,97698.87
2023-07-29T04:56:49.321Z,97703.19
2023-07-29T04:57:52.186Z,97711.09
2023-07-29T04:58:55.196Z,97698.09
2023-07-29T04:59:58.005Z,97708.88
2023-07-29T05:01:00.942Z,97704.19
2023-07-29T05:02:03.929Z,97712.00
2023-07-29T05:03:07.543Z,97707.28
2023-07-29T05:04:10.647Z,97711.66
2023-07-29T05:05:13.632Z,97710.47
2023-07-29T05:06:16.500Z,97716.28
2023-07-29T05:07:19.323Z,97714.56
2023-07-29T05:08:22.173Z,97719.09
2023-07-29T05:09:26.749Z,97723.69
2023-07-29T05:10:30.897Z,97728.22
2023-07-29T05:11:33.770Z,97728.50
2023-07-29T05:12:36.512Z,97726.66
2023-07-29T05:13:39.567Z,97726.88
2023-07-29T05:14:42.512Z,97731.38
2023-07-29T05:15:45.396Z,97728.78
2023-07-29T05:16:49.104Z,97728.25
2023-07-29T05:17:52.090Z,97727.72
2023-07-29T05:18:54.836Z,97727.81
2023-07-29T05:19:57.530Z,97726.59
2023-07-29T05:21:00.377Z,97738.59
2023-07-29T05:22:03.196Z,97733.81
2023-07-29T05:23:05.979Z,97731.09
2023-07-29T05:24:08.711Z,97743.13
2023-07-29T05:25:11.773Z,97734.94
2023-07-29T05:26:14.663Z,97732.97
2023-07-29T05:27:17.404Z,97745.69
2023-07-29T05:28:20.161Z,97740.31
2023-07-29T05:29:22.917Z,97736.97
2023-07-29T05:30:25.578Z,97740.59
2023-07-29T05:31:29.174Z,97742.81
2023-07-29T05:32:31.983Z,97751.28
2023-07-29T05:33:35.293Z,97750.66
2023-07-29T05:34:38.889Z,97750.72
2023-07-29T05:35:41.792Z,97755.66
2023-07-29T05:36:44.666Z,97764.81
2023-07-29T05:37:47.378Z,97753.66
2023-07-29T05:38:50.202Z,97757.94
2023-07-29T05:39:53.057Z,97764.97
2023-07-29T05:40:55.758Z,97763.56
2023-07-29T05:41:58.690Z,97759.47
2023-07-29T05:43:01.314Z,97771.44
2023-07-29T05:44:04.237Z,97762.38
2023-07-29T05:45:07.650Z,97769.41
2023-07-29T05:46:11.680Z,97763.84
2023-07-29T05:47:14.442Z,97770.97
2023-07-29T05:48:17.128Z,97768.94
2023-07-29T05:49:19.914Z,97767.56
2023-07-29T05:50:22.591Z,97768.25
2023-07-29T05:51:25.248Z,97768.34
2023-07-29T05:52:28.082Z,97773.31
2023-07-29T05:53:30.863Z,97762.16
2023-07-29T05:54:33.601Z,97774.03
2023-07-29T05:55:36.231Z,97771.25
2023-07-29T05:56:39.028Z,97775.47
2023-07-29T05:57:44.193Z,97767.81
2023-07-29T05:58:47.335Z,97778.28
2023-07-29T05:59:50.330Z,97790.87
2023-07-29T06:00:53.208Z,97787.41
2023-07-29T06:01:56.528Z,97782.53
2023-07-29T06:02:59.385Z,97781.16
2023-07-29T06:04:02.815Z,97788.88
2023-07-29T06:05:05.957Z,97797.25
2023-07-29T06:06:08.964Z,97788.88
2023-07-29T06:07:11.761Z,97799.34
2023-07-29T06:08:14.451Z,97790.25
2023-07-29T06:09:17.648Z,97802.84
2023-07-29T06:10:20.468Z,97806.31
2023-07-29T06:11:23.286Z,97800.00
2023-07-29T06:12:26.072Z,97798.59
2023-07-29T06:13:28.877Z,97803.47
2023-07-29T06:14:31.708Z,97801.31
2023-07-29T06:15:34.579Z,97801.97
2023-07-29T06:16:37.521Z,97797.13
2023-07-29T06:17:42.278Z,97800.69
2023-07-29T06:18:45.224Z,97793.72
2023-07-29T06:19:48.086Z,97798.03
2023-07-29T06:20:51.011Z,97802.25
2023-07-29T06:21:57.138Z,97808.66
2023-07-29T06:23:00.105Z,97803.78
2023-07-29T06:24:03.280Z,97809.47
2023-07-29T06:25:06.256Z,97801.88
2023-07-29T06:26:09.143Z,97798.56
2023-07-29T06:27:11.871Z,97799.31
2023-07-29T06:28:14.599Z,97801.44
2023-07-29T06:29:17.296Z,97803.69
2023-07-29T06:30:19.986Z,97804.44
2023-07-29T06:31:23.929Z,97804.81
2023-07-29T06:32:26.835Z,97802.66
2023-07-29T06:33:29.753Z,97808.94
2023-07-29T06:34:32.784Z,97806.84
2023-07-29T06:35:35.625Z,97810.41
2023-07-29T06:36:38.776Z,97811.22
2023-07-29T06:37:41.826Z,97809.22
2023-07-29T06:38:44.484Z,97807.94
2023-07-29T06:39:47.355Z,97804.50
2023-07-29T06:40:50.447Z,97806.69
2023-07-29T06:41:53.123Z,97808.91
2023-07-29T06:42:55.870Z,97816.06
2023-07-29T06:43:58.636Z,97811.22
2023-07-29T06:45:01.372Z,97818.91
2023-07-29T06:46:04.332Z,97809.88
2023-07-29T06:47:07.253Z,97817.59
2023-07-29T06:48:09.990Z,97808.50
2023-07-29T06:49:12.713Z,97816.22
2023-07-29T06:50:15.467Z,97812.75
2023-07-29T06:51:18.106Z,97819.75
2023-07-29T06:52:20.961Z,97812.75
2023-07-29T06:53:23.595Z,97810.62
2023-07-29T06:54:29.675Z,97809.97
2023-07-29T06:55:32.743Z,97810.00
2023-07-29T06:56:35.794Z,97815.66
2023-07-29T06:57:39.208Z,97803.78
2023-07-29T06:58:42.034Z,97809.41
2023-07-29T06:59:44.964Z,97798.94
2023-07-29T07:00:47.834Z,97802.56
2023-07-29T07:01:50.755Z,97797.75
2023-07-29T07:02:53.547Z,97793.63
2023-07-29T07:03:56.270Z,97795.81
2023-07-29T07:04:59.252Z,97797.97
2023-07-29T07:06:01.955Z,97801.56
2023-07-29T07:07:05.022Z,97794.00
2023-07-29T07:08:07.850Z,97794.09
2023-07-29T07:09:10.492Z,97803.31
2023-07-29T07:10:14.646Z,97797.09
2023-07-29T07:11:17.304Z,97797.84
2023-07-29T07:12:20.019Z,97806.37
2023-07-29T07:13:22.766Z,97800.84
2023-07-29T07:14:25.605Z,97805.09
2023-07-29T07:15:28.455Z,97801.66
2023-07-29T07:16:31.662Z,97803.84
2023-07-29T07:17:34.445Z,97798.28
2023-07-29T07:18:37.222Z,97803.28
2023-07-29T07:19:39.947Z,97799.75
2023-07-29T07:20:42.888Z,97797.69
2023-07-29T07:21:45.627Z,97799.16
2023-07-29T07:22:48.508Z,97801.97
2023-07-29T07:23:51.955Z,97806.19
2023-07-29T07:24:54.726Z,97803.38
2023-07-29T07:25:57.387Z,97806.19
2023-07-29T07:27:00.234Z,97811.81
2023-07-29T07:28:03.084Z,97810.44
2023-07-29T07:29:05.810Z,97806.91
2023-07-29T07:30:09.068Z,97803.38
2023-07-29T07:31:11.751Z,97810.50
2023-07-29T07:32:14.451Z,97811.22
2023-07-29T07:33:17.106Z,97813.31
2023-07-29T07:34:23.616Z,97802.81
2023-07-29T07:35:26.621Z,97810.56
2023-07-29T07:36:29.474Z,97806.34
2023-07-29T07:37:32.241Z,97809.22
2023-07-29T07:38:34.934Z,97807.06
2023-07-29T07:39:37.819Z,97807.06
2023-07-29T07:40:41.562Z,97811.97
2023-07-29T07:41:44.803Z,97805.00
2023-07-29T07:42:47.612Z,97800.78
2023-07-29T07:43:50.515Z,97800.13
2023-07-29T07:44:53.386Z,97795.97
2023-07-29T07:46:01.120Z,97804.38
2023-07-29T07:47:05.276Z,97802.97
2023-07-29T07:48:11.483Z,97806.50
2023-07-29T07:49:14.630Z,97798.13
2023-07-29T07:50:17.887Z,97793.91
2023-07-29T07:51:20.890Z,97809.41
2023-07-29T07:52:23.809Z,97803.84
2023-07-29T07:53:27.155Z,97798.91
2023-07-29T07:54:29.970Z,97799.66
2023-07-29T07:55:32.877Z,97795.47
2023-07-29T07:56:36.067Z,97796.19
2023-07-29T07:57:39.185Z,97794.16
2023-07-29T07:58:42.197Z,97795.59
2023-07-29T07:59:44.943Z,97798.41
2023-07-29T08:00:47.847Z,97794.22
2023-07-29T08:01:50.764Z,97791.44
2023-07-29T08:02:53.604Z,97792.84
2023-07-29T08:03:56.408Z,97795.72
2023-07-29T08:04:59.233Z,97795.75
2023-07-29T08:06:02.433Z,97790.16
2023-07-29T08:07:05.453Z,97790.22
2023-07-29T08:08:08.286Z,97790.25
2023-07-29T08:09:11.162Z,97791.03
2023-07-29T08:10:13.943Z,97790.34
2023-07-29T08:11:16.700Z,97791.81
2023-07-29T08:12:20.259Z,97793.97
2023-07-29T08:13:26.686Z,97794.72
2023-07-29T08:14:29.557Z,97791.91
2023-07-29T08:15:32.403Z,97793.28
2023-07-29T08:16:35.634Z,97792.59
2023-07-29T08:17:38.868Z,97795.44
2023-07-29T08:18:41.788Z,97794.81
2023-07-29T08:19:45.007Z,97790.63
2023-07-29T08:20:55.910Z,97787.12
2023-07-29T08:21:58.765Z,97785.72
2023-07-29T08:23:01.707Z,97796.31
2023-07-29T08:24:04.941Z,97790.69
2023-07-29T08:25:08.078Z,97785.78
2023-07-29T08:26:10.797Z,97792.13
2023-07-29T08:27:13.617Z,97793.53
2023-07-29T08:28:16.532Z,97791.44
2023-07-29T08:29:19.312Z,97787.22
2023-07-29T08:30:22.225Z,97785.81
2023-07-29T08:31:25.051Z,97795.69
2023-07-29T08:32:28.048Z,97786.53
2023-07-29T08:33:31.464Z,97787.94
2023-07-29T08:34:34.342Z,97780.91
2023-07-29T08:35:37.234Z,97783.72
2023-07-29T08:36:40.170Z,97788.66
2023-07-29T08:37:43.070Z,97789.34
2023-07-29T08:38:45.923Z,97785.09
2023-07-29T08:39:48.881Z,97786.53
2023-07-29T08:40:55.548Z,97785.09
2023-07-29T08:42:13.143Z,97783.69
2023-07-29T08:43:20.709Z,97778.75
2023-07-29T08:44:25.598Z,97775.94
2023-07-29T08:45:30.167Z,97782.25
2023-07-29T08:46:34.521Z,97783.69
2023-07-29T08:47:37.464Z,97782.28
2023-07-29T08:48:44.574Z,97772.38
2023-07-29T08:49:47.704Z,97776.63
2023-07-29T08:50:51.088Z,97778.00
2023-07-29T08:51:56.062Z,97773.06
2023-07-29T08:53:00.629Z,97777.25
2023-07-29T08:54:03.518Z,97776.50
2023-07-29T08:55:06.527Z,97781.44
2023-07-29T08:56:09.699Z,97781.41
2023-07-29T08:57:12.517Z,97777.91
2023-07-29T08:58:15.987Z,97775.06
2023-07-29T08:59:20.428Z,97779.28
2023-07-29T09:00:23.934Z,97772.94
2023-07-29T09:01:26.668Z,97777.88
2023-07-29T09:02:29.715Z,97778.53
2023-07-29T09:03:32.586Z,97770.78
2023-07-29T09:04:35.396Z,97777.09
2023-07-29T09:05:38.302Z,97765.78
2023-07-29T09:06:43.132Z,97769.31
2023-07-29T09:07:47.212Z,97775.56
2023-07-29T09:08:52.004Z,97770.59
2023-07-29T09:09:54.841Z,97774.78
2023-07-29T09:10:57.946Z,97774.03
2023-07-29T09:12:00.752Z,97775.44
2023-07-29T09:13:04.527Z,97781.84
2023-07-29T09:14:07.255Z,97766.97
2023-07-29T09:15:10.480Z,97772.62
2023-07-29T09:16:14.541Z,97767.63
2023-07-29T09:17:17.425Z,97780.38
2023-07-29T09:18:21.244Z,97769.13
2023-07-29T09:19:28.366Z,97762.72
2023-07-29T09:20:31.176Z,97765.56
2023-07-29T09:21:34.467Z,97774.00
2023-07-29T09:22:37.171Z,97773.25
2023-07-29T09:23:42.456Z,97766.16
2023-07-29T09:24:46.360Z,97773.19
2023-07-29T09:25:49.380Z,97770.31
2023-07-29T09:26:55.509Z,97763.22
2023-07-29T09:28:02.589Z,97761.88
2023-07-29T09:29:05.456Z,97762.53
2023-07-29T09:30:16.640Z,97762.50
2023-07-29T09:31:25.104Z,97759.56
2023-07-29T09:32:28.088Z,97751.00
2023-07-29T09:33:36.910Z,97754.44
2023-07-29T09:34:43.100Z,97753.03
2023-07-29T09:35:45.914Z,97747.41
2023-07-29T09:36:51.777Z,97756.59
2023-07-29T09:37:54.725Z,97750.91
2023-07-29T09:38:58.430Z,97757.94
2023-07-29T09:40:01.123Z,97747.38
2023-07-29T09:41:03.970Z,97752.31
2023-07-29T09:42:13.433Z,97752.28
2023-07-29T09:43:26.356Z,97755.03
2023-07-29T09:44:29.095Z,97756.34
2023-07-29T09:45:35.263Z,97752.87
2023-07-29T09:46:39.754Z,97749.19
2023-07-29T09:47:47.933Z,97744.41
2023-07-29T09:48:52.278Z,97749.31
2023-07-29T09:49:55.109Z,97750.09
2023-07-29T09:50:59.031Z,97747.31
2023-07-29T09:52:04.779Z,97746.50
2023-07-29T09:53:08.687Z,97743.06
2023-07-29T09:54:13.769Z,97745.22
2023-07-29T09:55:28.054Z,97749.34
2023-07-29T09:56:30.906Z,97737.28
2023-07-29T09:57:33.753Z,97749.16
2023-07-29T09:58:36.777Z,97746.25
2023-07-29T09:59:39.612Z,97749.12
2023-07-29T10:00:42.866Z,97747.03
2023-07-29T10:01:45.960Z,97747.03
2023-07-29T10:02:49.499Z,97749.19
2023-07-29T10:03:55.219Z,97740.53
2023-07-29T10:05:01.202Z,97739.75
2023-07-29T10:06:06.688Z,97741.06
2023-07-29T10:07:12.543Z,97738.22
2023-07-29T10:08:16.970Z,97741.06
2023-07-29T10:09:23.132Z,97737.56
2023-07-29T10:10:29.061Z,97742.44
2023-07-29T10:11:34.051Z,97739.44
2023-07-29T10:12:36.941Z,97737.16
2023-07-29T10:13:40.274Z,97743.38
2023-07-29T10:14:44.224Z,97740.41
2023-07-29T10:15:47.955Z,97733.88
2023-07-29T10:16:52.633Z,97733.81
2023-07-29T10:17:55.769Z,97738.88
2023-07-29T10:18:59.472Z,97731.94
2023-07-29T10:20:02.594Z,97739.13
2023-07-29T10:21:07.428Z,97741.50
2023-07-29T10:22:13.241Z,97736.53
2023-07-29T10:23:19.016Z,97736.66
2023-07-29T10:24:30.815Z,97734.56
2023-07-29T10:25:48.316Z,97734.56
2023-07-29T10:26:51.859Z,97736.75
2023-07-29T10:27:58.795Z,97742.38
2023-07-29T10:29:07.151Z,97740.88
2023-07-29T10:30:12.426Z,97738.19
2023-07-29T10:31:18.617Z,97739.69
2023-07-29T10:32:26.628Z,97735.38
2023-07-29T10:33:29.547Z,97738.34
2023-07-29T10:34:34.215Z,97739.25
2023-07-29T10:35:38.662Z,97736.41
2023-07-29T10:36:43.058Z,97732.19
2023-07-29T10:37:47.520Z,97731.50
2023-07-29T10:38:51.033Z,97732.22
2023-07-29T10:39:55.990Z,97730.09
2023-07-29T10:41:01.955Z,97730.78
2023-07-29T10:42:07.948Z,97734.88
2023-07-29T10:43:12.511Z,97731.41
2023-07-29T10:44:53.030Z,97730.81
2023-07-29T10:46:14.535Z,97732.97
2023-07-29T10:47:30.768Z,97726.69
2023-07-29T10:48:36.519Z,97730.13
2023-07-29T10:50:04.591Z,97733.75
2023-07-29T10:51:35.278Z,97723.25
2023-07-29T10:52:37.901Z,97724.59
2023-07-29T10:53:40.654Z,97730.09
2023-07-29T10:54:48.548Z,97722.84
2023-07-29T10:55:53.215Z,97726.91
2023-07-29T10:56:59.390Z,97723.94
2023-07-29T10:58:10.778Z,97728.78
2023-07-29T10:59:13.552Z,97731.47
2023-07-29T11:00:17.273Z,97727.81
2023-07-29T11:01:33.922Z,97733.38
2023-07-29T11:02:38.155Z,97731.78
2023-07-29T11:03:41.148Z,97732.38
2023-07-29T11:04:52.975Z,97734.50
2023-07-29T11:05:55.858Z,97731.78
2023-07-29T11:07:19.223Z,97723.41
2023-07-29T11:08:24.912Z,97727.56
2023-07-29T11:09:55.876Z,97730.31
2023-07-29T11:11:13.250Z,97727.84
2023-07-29T11:12:35.729Z,97728.03
2023-07-29T11:13:39.682Z,97730.28
2023-07-29T11:14:42.486Z,97732.28
2023-07-29T11:15:48.369Z,97737.72
2023-07-29T11:16:51.820Z,97728.81
2023-07-29T11:18:02.494Z,97726.78
2023-07-29T11:19:13.676Z,97732.38
2023-07-29T11:20:18.335Z,97734.44
2023-07-29T11:21:21.766Z,97735.06
2023-07-29T11:22:25.638Z,97728.72
2023-07-29T11:23:31.063Z,97731.91
2023-07-29T11:24:34.177Z,97734.50
2023-07-29T11:25:37.233Z,97730.34
2023-07-29T11:26:47.698Z,97730.41
2023-07-29T11:27:52.680Z,97729.66
2023-07-29T11:28:56.994Z,97726.12
2023-07-29T11:30:06.538Z,97723.91
2023-07-29T11:31:09.992Z,97726.44
2023-07-29T11:32:12.960Z,97719.22
2023-07-29T11:33:15.818Z,97721.03
2023-07-29T11:34:22.157Z,97721.03
2023-07-29T11:35:25.781Z,97722.47
2023-07-29T11:36:28.603Z,97728.91
2023-07-29T11:37:31.414Z,97731.53
2023-07-29T11:38:38.370Z,97734.47
2023-07-29T11:39:42.426Z,97733.59
2023-07-29T11:40:55.465Z,97727.34
2023-07-29T11:41:58.197Z,97728.69
2023-07-29T11:43:01.437Z,97725.97
2023-07-29T11:44:04.404Z,97726.97
2023-07-29T11:45:07.967Z,97724.13
2023-07-29T11:46:12.080Z,97726.12
2023-07-29T11:47:15.243Z,97719.75
2023-07-29T11:48:18.060Z,97719.00
2023-07-29T11:49:20.777Z,97709.13
2023-07-29T11:50:23.450Z,97723.19
2023-07-29T11:51:26.996Z,97716.16
2023-07-29T11:52:30.308Z,97719.72
2023-07-29T11:53:33.295Z,97717.62
2023-07-29T11:54:39.771Z,97713.53
2023-07-29T11:55:42.664Z,97710.62
2023-07-29T11:56:45.407Z,97702.00
2023-07-29T11:57:52.868Z,97709.72
2023-07-29T11:58:56.265Z,97708.91
2023-07-29T11:59:59.334Z,97708.53
2023-07-29T12:01:02.816Z,97705.72
2023-07-29T12:02:11.222Z,97706.28
2023-07-29T12:03:14.778Z,97706.75
2023-07-29T12:04:18.278Z,97700.50
2023-07-29T12:05:23.740Z,97693.34
2023-07-29T12:06:27.373Z,97694.03
2023-07-29T12:07:30.277Z,97698.22
2023-07-29T12:08:33.304Z,97697.94
2023-07-29T12:09:37.133Z,97699.34
2023-07-29T12:10:40.640Z,97699.13
2023-07-29T12:11:43.543Z,97696.84
2023-07-29T12:12:50.139Z,97704.72
2023-07-29T12:13:55.178Z,97701.47
2023-07-29T12:14:58.450Z,97696.84
2023-07-29T12:16:05.078Z,97698.41
2023-07-29T12:17:08.140Z,97699.31
2023-07-29T12:18:11.064Z,97696.94
2023-07-29T12:19:15.309Z,97685.53
2023-07-29T12:20:21.540Z,97685.34
2023-07-29T12:21:24.387Z,97684.69
2023-07-29T12:22:27.181Z,97684.37
2023-07-29T12:23:30.278Z,97687.72
2023-07-29T12:24:35.196Z,97692.13
2023-07-29T12:25:39.185Z,97685.16
2023-07-29T12:26:43.133Z,97682.88
2023-07-29T12:27:45.994Z,97676.16
2023-07-29T12:28:52.053Z,97682.47
2023-07-29T12:29:54.936Z,97681.25
2023-07-29T12:30:58.509Z,97681.84
2023-07-29T12:32:03.671Z,97695.59
2023-07-29T12:33:07.536Z,97683.34
2023-07-29T12:34:10.652Z,97688.00
2023-07-29T12:35:13.810Z,97686.75
2023-07-29T12:36:18.212Z,97688.28